sensor_id;sensor_type;location;lat;lon;timestamp;P1;durP1;ratioP1;P2;durP2;ratioP2
18592;SDS011;9426;54.118;17.948;2022-09-01T00:00:55;4.30;;;2.10;;
18592;SDS011;9426;54.118;17.948;2022-09-01T00:06:19;5.03;;;2.27;;
18592;SDS011;9426;54.118;17.948;2022-09-01T00:11:44;3.70;;;2.10;;
18592;SDS011;9426;54.118;17.948;2022-09-01T00:17:12;9.07;;;2.83;;
18592;SDS011;9426;54.118;17.948;2022-09-01T00:22:36;3.60;;;1.90;;
18592;SDS011;9426;54.118;17.948;2022-09-01T00:27:59;5.60;;;2.00;;
18592;SDS011;9426;54.118;17.948;2022-09-01T00:33:26;5.20;;;2.40;;
18592;SDS011;9426;54.118;17.948;2022-09-01T00:38:49;3.53;;;2.10;;
18592;SDS011;9426;54.118;17.948;2022-09-01T00:44:14;4.20;;;2.37;;
18592;SDS011;9426;54.118;17.948;2022-09-01T00:49:45;3.53;;;2.23;;
18592;SDS011;9426;54.118;17.948;2022-09-01T00:55:11;5.13;;;2.50;;
18592;SDS011;9426;54.118;17.948;2022-09-01T01:00:38;3.97;;;2.37;;
18592;SDS011;9426;54.118;17.948;2022-09-01T01:06:05;4.73;;;2.67;;
18592;SDS011;9426;54.118;17.948;2022-09-01T01:11:30;3.60;;;2.70;;
18592;SDS011;9426;54.118;17.948;2022-09-01T01:16:53;3.70;;;2.57;;
18592;SDS011;9426;54.118;17.948;2022-09-01T01:22:19;6.07;;;2.80;;
18592;SDS011;9426;54.118;17.948;2022-09-01T01:28:05;5.63;;;2.70;;
18592;SDS011;9426;54.118;17.948;2022-09-01T01:33:32;5.00;;;2.97;;
18592;SDS011;9426;54.118;17.948;2022-09-01T01:39:03;5.27;;;2.73;;
18592;SDS011;9426;54.118;17.948;2022-09-01T01:44:31;4.50;;;2.70;;
18592;SDS011;9426;54.118;17.948;2022-09-01T01:49:57;7.23;;;3.20;;
18592;SDS011;9426;54.118;17.948;2022-09-01T01:55:20;6.97;;;4.00;;
18592;SDS011;9426;54.118;17.948;2022-09-01T02:00:52;4.70;;;3.20;;
18592;SDS011;9426;54.118;17.948;2022-09-01T02:06:16;8.27;;;3.67;;
18592;SDS011;9426;54.118;17.948;2022-09-01T02:11:47;5.10;;;3.40;;
18592;SDS011;9426;54.118;17.948;2022-09-01T02:17:19;9.03;;;3.67;;
18592;SDS011;9426;54.118;17.948;2022-09-01T02:22:43;9.23;;;3.73;;
18592;SDS011;9426;54.118;17.948;2022-09-01T02:28:06;8.47;;;3.53;;
18592;SDS011;9426;54.118;17.948;2022-09-01T02:33:35;8.53;;;3.23;;
18592;SDS011;9426;54.118;17.948;2022-09-01T02:39:02;7.13;;;4.10;;
18592;SDS011;9426;54.118;17.948;2022-09-01T02:44:26;9.17;;;3.33;;
18592;SDS011;9426;54.118;17.948;2022-09-01T02:49:53;6.97;;;3.00;;
18592;SDS011;9426;54.118;17.948;2022-09-01T02:55:18;4.23;;;2.57;;
18592;SDS011;9426;54.118;17.948;2022-09-01T03:00:43;3.37;;;2.83;;
18592;SDS011;9426;54.118;17.948;2022-09-01T03:06:08;4.00;;;2.60;;
18592;SDS011;9426;54.118;17.948;2022-09-01T03:11:34;3.53;;;2.57;;
18592;SDS011;9426;54.118;17.948;2022-09-01T03:16:59;3.10;;;2.37;;
18592;SDS011;9426;54.118;17.948;2022-09-01T03:22:24;3.57;;;2.43;;
18592;SDS011;9426;54.118;17.948;2022-09-01T03:27:49;3.67;;;2.23;;
18592;SDS011;9426;54.118;17.948;2022-09-01T03:33:13;4.33;;;2.30;;
18592;SDS011;9426;54.118;17.948;2022-09-01T03:38:40;2.93;;;2.37;;
18592;SDS011;9426;54.118;17.948;2022-09-01T03:44:04;4.90;;;2.43;;
18592;SDS011;9426;54.118;17.948;2022-09-01T03:49:31;3.23;;;2.20;;
18592;SDS011;9426;54.118;17.948;2022-09-01T03:54:58;3.73;;;2.13;;
18592;SDS011;9426;54.118;17.948;2022-09-01T04:00:23;6.20;;;2.30;;
18592;SDS011;9426;54.118;17.948;2022-09-01T04:05:50;3.63;;;2.10;;
18592;SDS011;9426;54.118;17.948;2022-09-01T04:11:17;4.07;;;1.80;;
18592;SDS011;9426;54.118;17.948;2022-09-01T04:16:45;4.40;;;2.20;;
18592;SDS011;9426;54.118;17.948;2022-09-01T04:22:26;3.60;;;1.83;;
18592;SDS011;9426;54.118;17.948;2022-09-01T04:27:54;2.27;;;1.80;;
18592;SDS011;9426;54.118;17.948;2022-09-01T04:33:17;2.33;;;1.50;;
18592;SDS011;9426;54.118;17.948;2022-09-01T04:38:40;5.03;;;1.90;;
18592;SDS011;9426;54.118;17.948;2022-09-01T04:44:05;4.57;;;2.23;;
18592;SDS011;9426;54.118;17.948;2022-09-01T04:49:32;5.03;;;2.13;;
18592;SDS011;9426;54.118;17.948;2022-09-01T04:54:56;2.50;;;1.83;;
18592;SDS011;9426;54.118;17.948;2022-09-01T05:00:21;3.33;;;1.90;;
18592;SDS011;9426;54.118;17.948;2022-09-01T05:05:46;2.23;;;2.00;;
18592;SDS011;9426;54.118;17.948;2022-09-01T05:11:10;3.17;;;1.80;;
18592;SDS011;9426;54.118;17.948;2022-09-01T05:16:41;3.83;;;2.33;;
18592;SDS011;9426;54.118;17.948;2022-09-01T05:22:05;2.97;;;1.80;;
18592;SDS011;9426;54.118;17.948;2022-09-01T05:27:34;5.67;;;1.77;;
18592;SDS011;9426;54.118;17.948;2022-09-01T05:33:01;1.40;;;1.30;;
18592;SDS011;9426;54.118;17.948;2022-09-01T05:38:25;1.93;;;1.23;;
18592;SDS011;9426;54.118;17.948;2022-09-01T05:43:51;4.50;;;1.53;;
18592;SDS011;9426;54.118;17.948;2022-09-01T05:49:19;3.23;;;1.30;;
18592;SDS011;9426;54.118;17.948;2022-09-01T05:54:43;4.57;;;1.57;;
18592;SDS011;9426;54.118;17.948;2022-09-01T06:00:09;6.17;;;1.73;;
18592;SDS011;9426;54.118;17.948;2022-09-01T06:05:35;5.13;;;1.73;;
18592;SDS011;9426;54.118;17.948;2022-09-01T06:11:03;3.17;;;1.50;;
18592;SDS011;9426;54.118;17.948;2022-09-01T06:16:32;1.70;;;1.30;;
18592;SDS011;9426;54.118;17.948;2022-09-01T06:21:59;3.60;;;1.30;;
18592;SDS011;9426;54.118;17.948;2022-09-01T06:27:22;2.37;;;1.20;;
18592;SDS011;9426;54.118;17.948;2022-09-01T06:32:47;3.27;;;1.20;;
18592;SDS011;9426;54.118;17.948;2022-09-01T06:38:13;1.20;;;0.90;;
18592;SDS011;9426;54.118;17.948;2022-09-01T06:43:40;1.60;;;1.27;;
18592;SDS011;9426;54.118;17.948;2022-09-01T06:49:04;1.17;;;1.00;;
18592;SDS011;9426;54.118;17.948;2022-09-01T06:54:33;1.20;;;1.10;;
18592;SDS011;9426;54.118;17.948;2022-09-01T06:59:59;3.03;;;1.00;;
18592;SDS011;9426;54.118;17.948;2022-09-01T07:05:27;1.60;;;1.10;;
18592;SDS011;9426;54.118;17.948;2022-09-01T07:11:19;2.10;;;0.90;;
18592;SDS011;9426;54.118;17.948;2022-09-01T07:17:08;1.03;;;0.90;;
18592;SDS011;9426;54.118;17.948;2022-09-01T07:22:48;1.93;;;1.10;;
18592;SDS011;9426;54.118;17.948;2022-09-01T07:28:29;1.60;;;0.70;;
18592;SDS011;9426;54.118;17.948;2022-09-01T07:33:58;2.03;;;1.03;;
18592;SDS011;9426;54.118;17.948;2022-09-01T07:39:44;1.83;;;0.70;;
18592;SDS011;9426;54.118;17.948;2022-09-01T07:45:28;1.00;;;0.80;;
18592;SDS011;9426;54.118;17.948;2022-09-01T07:50:54;2.33;;;0.80;;
18592;SDS011;9426;54.118;17.948;2022-09-01T07:56:38;2.10;;;0.80;;
18592;SDS011;9426;54.118;17.948;2022-09-01T08:02:05;1.47;;;0.90;;
18592;SDS011;9426;54.118;17.948;2022-09-01T08:07:29;2.50;;;0.70;;
18592;SDS011;9426;54.118;17.948;2022-09-01T08:12:53;2.07;;;0.77;;
18592;SDS011;9426;54.118;17.948;2022-09-01T08:18:19;2.63;;;0.67;;
18592;SDS011;9426;54.118;17.948;2022-09-01T08:23:43;2.83;;;0.90;;
18592;SDS011;9426;54.118;17.948;2022-09-01T08:29:08;1.90;;;0.70;;
18592;SDS011;9426;54.118;17.948;2022-09-01T08:34:36;1.17;;;0.73;;
18592;SDS011;9426;54.118;17.948;2022-09-01T08:40:00;1.47;;;0.70;;
18592;SDS011;9426;54.118;17.948;2022-09-01T08:45:26;1.83;;;0.83;;
18592;SDS011;9426;54.118;17.948;2022-09-01T08:51:02;1.87;;;0.70;;
18592;SDS011;9426;54.118;17.948;2022-09-01T08:56:49;2.53;;;0.80;;
18592;SDS011;9426;54.118;17.948;2022-09-01T09:02:38;3.60;;;0.87;;
18592;SDS011;9426;54.118;17.948;2022-09-01T09:08:15;2.80;;;0.73;;
18592;SDS011;9426;54.118;17.948;2022-09-01T09:13:52;0.47;;;0.43;;
18592;SDS011;9426;54.118;17.948;2022-09-01T09:19:26;1.80;;;0.73;;
18592;SDS011;9426;54.118;17.948;2022-09-01T09:24:54;2.00;;;0.90;;
18592;SDS011;9426;54.118;17.948;2022-09-01T09:30:28;2.83;;;0.70;;
18592;SDS011;9426;54.118;17.948;2022-09-01T09:35:53;1.20;;;0.80;;
18592;SDS011;9426;54.118;17.948;2022-09-01T09:41:20;3.03;;;0.87;;
18592;SDS011;9426;54.118;17.948;2022-09-01T09:46:46;1.27;;;0.90;;
18592;SDS011;9426;54.118;17.948;2022-09-01T09:52:14;1.83;;;1.10;;
18592;SDS011;9426;54.118;17.948;2022-09-01T09:57:41;2.07;;;0.73;;
18592;SDS011;9426;54.118;17.948;2022-09-01T10:03:05;1.20;;;0.60;;
18592;SDS011;9426;54.118;17.948;2022-09-01T10:08:40;1.07;;;0.70;;
18592;SDS011;9426;54.118;17.948;2022-09-01T10:14:11;1.80;;;0.90;;
18592;SDS011;9426;54.118;17.948;2022-09-01T10:19:49;1.50;;;0.70;;
18592;SDS011;9426;54.118;17.948;2022-09-01T10:25:16;1.20;;;0.67;;
18592;SDS011;9426;54.118;17.948;2022-09-01T10:30:44;0.90;;;0.70;;
18592;SDS011;9426;54.118;17.948;2022-09-01T10:36:11;0.87;;;0.57;;
18592;SDS011;9426;54.118;17.948;2022-09-01T10:41:43;2.10;;;0.80;;
18592;SDS011;9426;54.118;17.948;2022-09-01T10:47:24;1.00;;;0.60;;
18592;SDS011;9426;54.118;17.948;2022-09-01T10:52:56;1.03;;;0.60;;
18592;SDS011;9426;54.118;17.948;2022-09-01T10:58:49;1.07;;;0.60;;
18592;SDS011;9426;54.118;17.948;2022-09-01T11:10:38;1.20;;;0.50;;
18592;SDS011;9426;54.118;17.948;2022-09-01T11:16:32;0.87;;;0.57;;
18592;SDS011;9426;54.118;17.948;2022-09-01T11:28:06;0.50;;;0.50;;
18592;SDS011;9426;54.118;17.948;2022-09-01T11:33:49;2.43;;;0.80;;
18592;SDS011;9426;54.118;17.948;2022-09-01T11:39:28;2.27;;;0.70;;
18592;SDS011;9426;54.118;17.948;2022-09-01T11:44:54;0.60;;;0.57;;
18592;SDS011;9426;54.118;17.948;2022-09-01T11:50:22;1.47;;;0.83;;
18592;SDS011;9426;54.118;17.948;2022-09-01T11:55:51;2.35;;;0.52;;
18592;SDS011;9426;54.118;17.948;2022-09-01T12:01:17;0.73;;;0.40;;
18592;SDS011;9426;54.118;17.948;2022-09-01T12:06:49;1.30;;;0.70;;
18592;SDS011;9426;54.118;17.948;2022-09-01T12:12:28;0.93;;;0.50;;
18592;SDS011;9426;54.118;17.948;2022-09-01T12:18:06;0.45;;;0.45;;
18592;SDS011;9426;54.118;17.948;2022-09-01T12:23:31;0.82;;;0.60;;
18592;SDS011;9426;54.118;17.948;2022-09-01T12:28:57;0.63;;;0.47;;
18592;SDS011;9426;54.118;17.948;2022-09-01T12:34:25;2.60;;;0.60;;
18592;SDS011;9426;54.118;17.948;2022-09-01T12:39:58;0.50;;;0.45;;
18592;SDS011;9426;54.118;17.948;2022-09-01T12:45:42;0.68;;;0.50;;
18592;SDS011;9426;54.118;17.948;2022-09-01T12:51:14;0.50;;;0.47;;
18592;SDS011;9426;54.118;17.948;2022-09-01T12:56:47;0.80;;;0.50;;
18592;SDS011;9426;54.118;17.948;2022-09-01T13:02:26;3.88;;;0.50;;
18592;SDS011;9426;54.118;17.948;2022-09-01T13:07:56;0.73;;;0.47;;
18592;SDS011;9426;54.118;17.948;2022-09-01T13:13:21;0.95;;;0.50;;
18592;SDS011;9426;54.118;17.948;2022-09-01T13:18:47;0.75;;;0.50;;
18592;SDS011;9426;54.118;17.948;2022-09-01T13:24:30;1.25;;;0.55;;
18592;SDS011;9426;54.118;17.948;2022-09-01T13:29:54;1.55;;;0.60;;
18592;SDS011;9426;54.118;17.948;2022-09-01T13:35:19;0.50;;;0.50;;
18592;SDS011;9426;54.118;17.948;2022-09-01T13:40:44;2.07;;;0.70;;
18592;SDS011;9426;54.118;17.948;2022-09-01T13:46:09;1.53;;;0.60;;
18592;SDS011;9426;54.118;17.948;2022-09-01T13:51:34;1.30;;;0.43;;
18592;SDS011;9426;54.118;17.948;2022-09-01T13:56:57;0.50;;;0.47;;
18592;SDS011;9426;54.118;17.948;2022-09-01T14:02:21;1.67;;;0.52;;
18592;SDS011;9426;54.118;17.948;2022-09-01T14:07:46;0.77;;;0.43;;
18592;SDS011;9426;54.118;17.948;2022-09-01T14:13:10;1.05;;;0.60;;
18592;SDS011;9426;54.118;17.948;2022-09-01T14:18:34;3.28;;;0.70;;
18592;SDS011;9426;54.118;17.948;2022-09-01T14:24:00;1.55;;;0.50;;
18592;SDS011;9426;54.118;17.948;2022-09-01T14:29:26;0.47;;;0.47;;
18592;SDS011;9426;54.118;17.948;2022-09-01T14:34:50;0.50;;;0.50;;
18592;SDS011;9426;54.118;17.948;2022-09-01T14:40:16;1.47;;;0.60;;
18592;SDS011;9426;54.118;17.948;2022-09-01T14:45:41;3.70;;;0.60;;
18592;SDS011;9426;54.118;17.948;2022-09-01T14:51:06;0.37;;;0.37;;
18592;SDS011;9426;54.118;17.948;2022-09-01T14:56:32;0.97;;;0.60;;
18592;SDS011;9426;54.118;17.948;2022-09-01T15:01:55;0.50;;;0.40;;
18592;SDS011;9426;54.118;17.948;2022-09-01T15:07:18;1.40;;;0.50;;
18592;SDS011;9426;54.118;17.948;2022-09-01T15:12:44;1.23;;;0.50;;
18592;SDS011;9426;54.118;17.948;2022-09-01T15:18:07;0.98;;;0.60;;
18592;SDS011;9426;54.118;17.948;2022-09-01T15:23:31;1.03;;;0.77;;
18592;SDS011;9426;54.118;17.948;2022-09-01T15:28:56;1.70;;;0.80;;
18592;SDS011;9426;54.118;17.948;2022-09-01T15:34:22;1.30;;;0.70;;
18592;SDS011;9426;54.118;17.948;2022-09-01T15:39:48;0.80;;;0.60;;
18592;SDS011;9426;54.118;17.948;2022-09-01T15:45:21;2.77;;;0.57;;
18592;SDS011;9426;54.118;17.948;2022-09-01T15:50:45;3.30;;;0.40;;
18592;SDS011;9426;54.118;17.948;2022-09-01T15:56:09;0.90;;;0.50;;
18592;SDS011;9426;54.118;17.948;2022-09-01T16:01:35;1.73;;;0.73;;
18592;SDS011;9426;54.118;17.948;2022-09-01T16:07:02;0.90;;;0.77;;
18592;SDS011;9426;54.118;17.948;2022-09-01T16:12:26;3.17;;;1.07;;
18592;SDS011;9426;54.118;17.948;2022-09-01T16:17:53;1.57;;;0.60;;
18592;SDS011;9426;54.118;17.948;2022-09-01T16:23:42;0.47;;;0.47;;
18592;SDS011;9426;54.118;17.948;2022-09-01T16:29:07;2.40;;;0.60;;
18592;SDS011;9426;54.118;17.948;2022-09-01T16:34:35;1.13;;;0.60;;
18592;SDS011;9426;54.118;17.948;2022-09-01T16:40:09;1.10;;;0.60;;
18592;SDS011;9426;54.118;17.948;2022-09-01T16:45:43;0.63;;;0.57;;
18592;SDS011;9426;54.118;17.948;2022-09-01T16:51:18;0.97;;;0.80;;
18592;SDS011;9426;54.118;17.948;2022-09-01T16:56:49;1.50;;;0.93;;
18592;SDS011;9426;54.118;17.948;2022-09-01T17:02:23;2.43;;;0.90;;
18592;SDS011;9426;54.118;17.948;2022-09-01T17:08:04;2.97;;;0.90;;
18592;SDS011;9426;54.118;17.948;2022-09-01T17:13:35;1.27;;;0.73;;
18592;SDS011;9426;54.118;17.948;2022-09-01T17:19:02;1.90;;;0.90;;
18592;SDS011;9426;54.118;17.948;2022-09-01T17:24:30;1.03;;;0.60;;
18592;SDS011;9426;54.118;17.948;2022-09-01T17:29:58;1.87;;;0.80;;
18592;SDS011;9426;54.118;17.948;2022-09-01T17:35:24;1.83;;;0.80;;
18592;SDS011;9426;54.118;17.948;2022-09-01T17:40:57;1.53;;;0.73;;
18592;SDS011;9426;54.118;17.948;2022-09-01T17:46:34;1.27;;;0.93;;
18592;SDS011;9426;54.118;17.948;2022-09-01T17:52:06;2.57;;;0.97;;
18592;SDS011;9426;54.118;17.948;2022-09-01T17:57:38;2.10;;;1.10;;
18592;SDS011;9426;54.118;17.948;2022-09-01T18:03:14;1.50;;;1.00;;
18592;SDS011;9426;54.118;17.948;2022-09-01T18:08:46;2.50;;;1.50;;
18592;SDS011;9426;54.118;17.948;2022-09-01T18:14:16;3.20;;;1.60;;
18592;SDS011;9426;54.118;17.948;2022-09-01T18:19:43;3.70;;;2.80;;
18592;SDS011;9426;54.118;17.948;2022-09-01T18:25:14;5.57;;;3.03;;
18592;SDS011;9426;54.118;17.948;2022-09-01T18:30:44;4.30;;;2.73;;
18592;SDS011;9426;54.118;17.948;2022-09-01T18:36:15;5.10;;;3.50;;
18592;SDS011;9426;54.118;17.948;2022-09-01T18:41:51;8.47;;;3.70;;
18592;SDS011;9426;54.118;17.948;2022-09-01T18:47:25;6.27;;;3.30;;
18592;SDS011;9426;54.118;17.948;2022-09-01T18:52:57;5.93;;;3.60;;
18592;SDS011;9426;54.118;17.948;2022-09-01T18:58:33;6.50;;;3.33;;
18592;SDS011;9426;54.118;17.948;2022-09-01T19:04:09;6.27;;;2.93;;
18592;SDS011;9426;54.118;17.948;2022-09-01T19:09:39;4.27;;;2.47;;
18592;SDS011;9426;54.118;17.948;2022-09-01T19:15:11;4.43;;;2.00;;
18592;SDS011;9426;54.118;17.948;2022-09-01T19:20:44;3.97;;;2.20;;
18592;SDS011;9426;54.118;17.948;2022-09-01T19:26:14;2.50;;;1.70;;
18592;SDS011;9426;54.118;17.948;2022-09-01T19:31:42;2.77;;;1.67;;
18592;SDS011;9426;54.118;17.948;2022-09-01T19:37:10;7.60;;;2.13;;
18592;SDS011;9426;54.118;17.948;2022-09-01T19:42:36;3.40;;;1.63;;
18592;SDS011;9426;54.118;17.948;2022-09-01T19:48:05;3.10;;;1.60;;
18592;SDS011;9426;54.118;17.948;2022-09-01T19:53:39;3.90;;;1.70;;
18592;SDS011;9426;54.118;17.948;2022-09-01T19:59:10;2.60;;;1.60;;
18592;SDS011;9426;54.118;17.948;2022-09-01T20:04:40;4.63;;;1.60;;
18592;SDS011;9426;54.118;17.948;2022-09-01T20:10:23;3.47;;;1.73;;
18592;SDS011;9426;54.118;17.948;2022-09-01T20:16:01;4.60;;;1.60;;
18592;SDS011;9426;54.118;17.948;2022-09-01T20:21:32;3.97;;;1.57;;
18592;SDS011;9426;54.118;17.948;2022-09-01T20:27:02;3.93;;;2.27;;
18592;SDS011;9426;54.118;17.948;2022-09-01T20:32:31;3.77;;;2.23;;
18592;SDS011;9426;54.118;17.948;2022-09-01T20:38:01;3.93;;;2.27;;
18592;SDS011;9426;54.118;17.948;2022-09-01T20:43:50;4.57;;;2.53;;
18592;SDS011;9426;54.118;17.948;2022-09-01T20:49:17;6.70;;;2.60;;
18592;SDS011;9426;54.118;17.948;2022-09-01T20:54:45;7.73;;;2.73;;
18592;SDS011;9426;54.118;17.948;2022-09-01T21:00:18;5.43;;;2.63;;
18592;SDS011;9426;54.118;17.948;2022-09-01T21:05:47;8.17;;;3.33;;
18592;SDS011;9426;54.118;17.948;2022-09-01T21:11:20;7.27;;;3.20;;
18592;SDS011;9426;54.118;17.948;2022-09-01T21:17:00;8.43;;;3.00;;
18592;SDS011;9426;54.118;17.948;2022-09-01T21:22:30;5.47;;;2.67;;
18592;SDS011;9426;54.118;17.948;2022-09-01T21:27:54;5.53;;;2.67;;
18592;SDS011;9426;54.118;17.948;2022-09-01T21:33:21;4.67;;;2.43;;
18592;SDS011;9426;54.118;17.948;2022-09-01T21:38:46;4.83;;;2.30;;
18592;SDS011;9426;54.118;17.948;2022-09-01T21:44:09;3.60;;;2.17;;
18592;SDS011;9426;54.118;17.948;2022-09-01T21:49:34;5.17;;;2.50;;
18592;SDS011;9426;54.118;17.948;2022-09-01T21:54:58;4.50;;;2.40;;
18592;SDS011;9426;54.118;17.948;2022-09-01T22:00:22;4.80;;;2.70;;
18592;SDS011;9426;54.118;17.948;2022-09-01T22:05:48;6.07;;;3.23;;
18592;SDS011;9426;54.118;17.948;2022-09-01T22:11:11;6.77;;;3.70;;
18592;SDS011;9426;54.118;17.948;2022-09-01T22:16:36;7.83;;;3.93;;
18592;SDS011;9426;54.118;17.948;2022-09-01T22:22:01;6.67;;;4.07;;
18592;SDS011;9426;54.118;17.948;2022-09-01T22:27:25;6.87;;;4.00;;
18592;SDS011;9426;54.118;17.948;2022-09-01T22:32:48;6.40;;;3.90;;
18592;SDS011;9426;54.118;17.948;2022-09-01T22:38:13;10.53;;;4.13;;
18592;SDS011;9426;54.118;17.948;2022-09-01T22:43:38;6.00;;;3.47;;
18592;SDS011;9426;54.118;17.948;2022-09-01T22:49:01;7.00;;;3.77;;
18592;SDS011;9426;54.118;17.948;2022-09-01T22:54:28;5.60;;;3.07;;
18592;SDS011;9426;54.118;17.948;2022-09-01T22:59:52;5.83;;;3.10;;
18592;SDS011;9426;54.118;17.948;2022-09-01T23:05:16;6.83;;;3.33;;
18592;SDS011;9426;54.118;17.948;2022-09-01T23:10:43;5.50;;;3.30;;
18592;SDS011;9426;54.118;17.948;2022-09-01T23:16:08;6.37;;;3.20;;
18592;SDS011;9426;54.118;17.948;2022-09-01T23:21:33;5.43;;;3.50;;
18592;SDS011;9426;54.118;17.948;2022-09-01T23:26:59;7.27;;;2.90;;
18592;SDS011;9426;54.118;17.948;2022-09-01T23:32:23;4.97;;;2.80;;
18592;SDS011;9426;54.118;17.948;2022-09-01T23:37:47;6.10;;;2.60;;
18592;SDS011;9426;54.118;17.948;2022-09-01T23:43:12;3.67;;;2.20;;
18592;SDS011;9426;54.118;17.948;2022-09-01T23:48:36;2.60;;;1.80;;
18592;SDS011;9426;54.118;17.948;2022-09-01T23:54:00;4.40;;;2.33;;
18592;SDS011;9426;54.118;17.948;2022-09-01T23:59:25;3.23;;;1.97;;
